sensor_id;sensor_type;location;lat;lon;timestamp;pressure;altitude;pressure_sealevel;temperature;humidity
39141;BME280;24875;48.436;10.298;2022-08-30T00:02:16;96495.72;;;16.97;100.00
39141;BME280;24875;48.436;10.298;2022-08-30T00:04:43;96501.94;;;16.84;100.00
39141;BME280;24875;48.436;10.298;2022-08-30T00:07:10;96504.63;;;16.65;100.00
39141;BME280;24875;48.436;10.298;2022-08-30T00:09:37;96506.69;;;16.63;100.00
39141;BME280;24875;48.436;10.298;2022-08-30T00:12:03;96502.56;;;16.73;100.00
39141;BME280;24875;48.436;10.298;2022-08-30T00:14:30;96502.34;;;16.75;100.00
39141;BME280;24875;48.436;10.298;2022-08-30T00:16:57;96505.66;;;16.70;100.00
39141;BME280;24875;48.436;10.298;2022-08-30T00:19:25;96501.72;;;16.86;100.00
39141;BME280;24875;48.436;10.298;2022-08-30T00:21:51;96511.16;;;16.75;100.00
39141;BME280;24875;48.436;10.298;2022-08-30T00:24:18;96499.31;;;16.71;100.00
39141;BME280;24875;48.436;10.298;2022-08-30T00:26:44;96504.41;;;16.73;100.00
39141;BME280;24875;48.436;10.298;2022-08-30T00:29:11;96506.03;;;16.80;100.00
39141;BME280;24875;48.436;10.298;2022-08-30T00:31:38;96501.09;;;16.84;100.00
39141;BME280;24875;48.436;10.298;2022-08-30T00:34:04;96507.84;;;16.80;100.00
39141;BME280;24875;48.436;10.298;2022-08-30T00:36:32;96507.47;;;16.76;100.00
39141;BME280;24875;48.436;10.298;2022-08-30T00:38:59;96506.25;;;16.66;100.00
39141;BME280;24875;48.436;10.298;2022-08-30T00:41:25;96504.84;;;16.57;100.00
39141;BME280;24875;48.436;10.298;2022-08-30T00:43:52;96498.09;;;16.48;100.00
39141;BME280;24875;48.436;10.298;2022-08-30T00:46:19;96502.19;;;16.25;100.00
39141;BME280;24875;48.436;10.298;2022-08-30T00:48:46;96496.06;;;16.50;100.00
39141;BME280;24875;48.436;10.298;2022-08-30T00:51:15;96495.03;;;16.51;100.00
39141;BME280;24875;48.436;10.298;2022-08-30T00:53:47;96489.06;;;16.62;100.00
39141;BME280;24875;48.436;10.298;2022-08-30T00:56:15;96494.00;;;16.52;100.00
39141;BME280;24875;48.436;10.298;2022-08-30T00:58:45;96493.41;;;16.50;100.00
39141;BME280;24875;48.436;10.298;2022-08-30T01:01:12;96493.00;;;16.40;100.00
39141;BME280;24875;48.436;10.298;2022-08-30T01:03:39;96505.88;;;16.49;100.00
39141;BME280;24875;48.436;10.298;2022-08-30T01:06:07;96499.75;;;16.49;100.00
39141;BME280;24875;48.436;10.298;2022-08-30T01:08:35;96497.88;;;16.49;100.00
39141;BME280;24875;48.436;10.298;2022-08-30T01:11:03;96497.28;;;16.54;100.00
39141;BME280;24875;48.436;10.298;2022-08-30T01:13:31;96500.56;;;16.43;100.00
39141;BME280;24875;48.436;10.298;2022-08-30T01:15:59;96505.50;;;16.40;100.00
39141;BME280;24875;48.436;10.298;2022-08-30T01:18:27;96507.09;;;16.34;100.00
39141;BME280;24875;48.436;10.298;2022-08-30T01:20:58;96513.03;;;16.49;100.00
39141;BME280;24875;48.436;10.298;2022-08-30T01:23:30;96512.66;;;16.26;100.00
39141;BME280;24875;48.436;10.298;2022-08-30T01:25:59;96512.44;;;16.34;100.00
39141;BME280;24875;48.436;10.298;2022-08-30T01:28:28;96511.59;;;16.08;100.00
39141;BME280;24875;48.436;10.298;2022-08-30T01:30:55;96516.50;;;16.17;100.00
39141;BME280;24875;48.436;10.298;2022-08-30T01:33:22;96518.94;;;16.12;100.00
39141;BME280;24875;48.436;10.298;2022-08-30T01:35:51;96518.75;;;16.20;100.00
39141;BME280;24875;48.436;10.298;2022-08-30T01:38:19;96517.31;;;16.11;100.00
39141;BME280;24875;48.436;10.298;2022-08-30T01:40:48;96511.59;;;16.01;100.00
39141;BME280;24875;48.436;10.298;2022-08-30T01:43:15;96510.59;;;16.15;100.00
39141;BME280;24875;48.436;10.298;2022-08-30T01:45:42;96511.59;;;16.14;100.00
39141;BME280;24875;48.436;10.298;2022-08-30T01:48:09;96506.69;;;16.24;100.00
39141;BME280;24875;48.436;10.298;2022-08-30T01:50:37;96512.03;;;16.18;100.00
39141;BME280;24875;48.436;10.298;2022-08-30T01:53:04;96499.34;;;16.26;100.00
39141;BME280;24875;48.436;10.298;2022-08-30T01:55:30;96502.41;;;16.10;100.00
39141;BME280;24875;48.436;10.298;2022-08-30T01:57:58;96510.16;;;16.18;100.00
39141;BME280;24875;48.436;10.298;2022-08-30T02:00:25;96503.19;;;16.11;100.00
39141;BME280;24875;48.436;10.298;2022-08-30T02:02:51;96511.97;;;15.98;100.00
39141;BME280;24875;48.436;10.298;2022-08-30T02:05:18;96504.00;;;16.11;100.00
39141;BME280;24875;48.436;10.298;2022-08-30T02:07:45;96505.88;;;16.11;100.00
39141;BME280;24875;48.436;10.298;2022-08-30T02:10:11;96505.06;;;16.10;100.00
39141;BME280;24875;48.436;10.298;2022-08-30T02:12:39;96508.72;;;16.09;100.00
39141;BME280;24875;48.436;10.298;2022-08-30T02:15:08;96507.09;;;16.02;100.00
39141;BME280;24875;48.436;10.298;2022-08-30T02:17:35;96505.22;;;15.83;100.00
39141;BME280;24875;48.436;10.298;2022-08-30T02:20:03;96509.13;;;15.93;100.00
39141;BME280;24875;48.436;10.298;2022-08-30T02:22:29;96507.28;;;15.94;100.00
39141;BME280;24875;48.436;10.298;2022-08-30T02:24:56;96500.97;;;15.95;100.00
39141;BME280;24875;48.436;10.298;2022-08-30T02:27:23;96500.13;;;15.82;100.00
39141;BME280;24875;48.436;10.298;2022-08-30T02:29:50;96505.00;;;15.84;100.00
39141;BME280;24875;48.436;10.298;2022-08-30T02:32:18;96503.41;;;15.96;100.00
39141;BME280;24875;48.436;10.298;2022-08-30T02:34:45;96492.34;;;15.86;100.00
39141;BME280;24875;48.436;10.298;2022-08-30T02:37:12;96498.09;;;15.84;100.00
39141;BME280;24875;48.436;10.298;2022-08-30T02:39:39;96505.22;;;15.77;100.00
39141;BME280;24875;48.436;10.298;2022-08-30T02:42:06;96498.91;;;15.90;100.00
39141;BME280;24875;48.436;10.298;2022-08-30T02:44:32;96503.00;;;15.99;100.00
39141;BME280;24875;48.436;10.298;2022-08-30T02:46:59;96501.34;;;15.98;100.00
39141;BME280;24875;48.436;10.298;2022-08-30T02:49:27;96497.88;;;15.98;100.00
39141;BME280;24875;48.436;10.298;2022-08-30T02:51:53;96499.91;;;15.96;100.00
39141;BME280;24875;48.436;10.298;2022-08-30T02:54:20;96498.69;;;15.92;100.00
39141;BME280;24875;48.436;10.298;2022-08-30T02:56:47;96496.03;;;15.98;100.00
39141;BME280;24875;48.436;10.298;2022-08-30T02:59:14;96496.88;;;15.86;100.00
39141;BME280;24875;48.436;10.298;2022-08-30T03:01:41;96494.38;;;15.78;100.00
39141;BME280;24875;48.436;10.298;2022-08-30T03:04:07;96485.16;;;15.68;100.00
39141;BME280;24875;48.436;10.298;2022-08-30T03:06:36;96489.88;;;15.66;100.00
39141;BME280;24875;48.436;10.298;2022-08-30T03:09:02;96491.31;;;15.62;100.00
39141;BME280;24875;48.436;10.298;2022-08-30T03:11:29;96496.81;;;15.67;100.00
39141;BME280;24875;48.436;10.298;2022-08-30T03:13:55;96486.81;;;15.62;100.00
39141;BME280;24875;48.436;10.298;2022-08-30T03:16:22;96487.00;;;15.61;100.00
39141;BME280;24875;48.436;10.298;2022-08-30T03:18:49;96491.31;;;15.62;100.00
39141;BME280;24875;48.436;10.298;2022-08-30T03:21:15;96486.16;;;15.54;100.00
39141;BME280;24875;48.436;10.298;2022-08-30T03:23:44;96480.28;;;15.65;100.00
39141;BME280;24875;48.436;10.298;2022-08-30T03:26:10;96485.34;;;15.47;100.00
39141;BME280;24875;48.436;10.298;2022-08-30T03:28:39;96478.38;;;15.39;100.00
39141;BME280;24875;48.436;10.298;2022-08-30T03:31:06;96480.59;;;15.36;100.00
39141;BME280;24875;48.436;10.298;2022-08-30T03:33:33;96497.97;;;15.32;100.00
39141;BME280;24875;48.436;10.298;2022-08-30T03:35:59;96485.28;;;15.21;100.00
39141;BME280;24875;48.436;10.298;2022-08-30T03:38:26;96493.44;;;15.26;100.00
39141;BME280;24875;48.436;10.298;2022-08-30T03:40:54;96482.88;;;15.39;100.00
39141;BME280;24875;48.436;10.298;2022-08-30T03:43:20;96492.84;;;15.24;100.00
39141;BME280;24875;48.436;10.298;2022-08-30T03:45:47;96493.25;;;15.27;100.00
39141;BME280;24875;48.436;10.298;2022-08-30T03:48:14;96491.94;;;15.17;100.00
39141;BME280;24875;48.436;10.298;2022-08-30T03:50:40;96489.38;;;15.24;100.00
39141;BME280;24875;48.436;10.298;2022-08-30T03:53:07;96487.34;;;15.38;100.00
39141;BME280;24875;48.436;10.298;2022-08-30T03:55:33;96486.56;;;15.38;100.00
39141;BME280;24875;48.436;10.298;2022-08-30T03:58:01;96488.19;;;15.39;100.00
39141;BME280;24875;48.436;10.298;2022-08-30T04:00:28;96493.25;;;15.27;100.00
39141;BME280;24875;48.436;10.298;2022-08-30T04:02:54;96500.53;;;15.13;100.00
39141;BME280;24875;48.436;10.298;2022-08-30T04:05:21;96492.16;;;15.16;100.00
39141;BME280;24875;48.436;10.298;2022-08-30T04:07:47;96493.03;;;15.23;100.00
39141;BME280;24875;48.436;10.298;2022-08-30T04:10:14;96495.22;;;15.19;100.00
39141;BME280;24875;48.436;10.298;2022-08-30T04:12:41;96500.53;;;15.19;100.00
39141;BME280;24875;48.436;10.298;2022-08-30T04:15:10;96506.13;;;15.30;100.00
39141;BME280;24875;48.436;10.298;2022-08-30T04:17:37;96500.00;;;15.24;100.00
39141;BME280;24875;48.436;10.298;2022-08-30T04:20:04;96508.91;;;15.16;100.00
39141;BME280;24875;48.436;10.298;2022-08-30T04:22:31;96512.53;;;15.02;100.00
39141;BME280;24875;48.436;10.298;2022-08-30T04:24:58;96507.00;;;14.97;100.00
39141;BME280;24875;48.436;10.298;2022-08-30T04:27:24;96507.81;;;15.04;100.00
39141;BME280;24875;48.436;10.298;2022-08-30T04:29:51;96502.13;;;15.07;100.00
39141;BME280;24875;48.436;10.298;2022-08-30T04:32:19;96486.63;;;15.11;100.00
39141;BME280;24875;48.436;10.298;2022-08-30T04:34:46;96503.97;;;15.13;100.00
39141;BME280;24875;48.436;10.298;2022-08-30T04:37:14;96496.59;;;15.02;100.00
39141;BME280;24875;48.436;10.298;2022-08-30T04:39:41;96500.66;;;14.98;100.00
39141;BME280;24875;48.436;10.298;2022-08-30T04:42:07;96491.53;;;15.07;100.00
39141;BME280;24875;48.436;10.298;2022-08-30T04:44:36;96498.06;;;15.11;100.00
39141;BME280;24875;48.436;10.298;2022-08-30T04:47:03;96503.75;;;15.08;100.00
39141;BME280;24875;48.436;10.298;2022-08-30T04:49:31;96504.16;;;15.58;100.00
39141;BME280;24875;48.436;10.298;2022-08-30T04:51:57;96508.69;;;15.71;100.00
39141;BME280;24875;48.436;10.298;2022-08-30T04:54:24;96508.31;;;15.86;100.00
39141;BME280;24875;48.436;10.298;2022-08-30T04:56:50;96512.41;;;16.08;100.00
39141;BME280;24875;48.436;10.298;2022-08-30T04:59:17;96520.16;;;16.23;100.00
39141;BME280;24875;48.436;10.298;2022-08-30T05:01:43;96525.31;;;16.18;99.93
39141;BME280;24875;48.436;10.298;2022-08-30T05:04:10;96534.50;;;16.09;100.00
39141;BME280;24875;48.436;10.298;2022-08-30T05:06:38;96535.72;;;16.06;100.00
39141;BME280;24875;48.436;10.298;2022-08-30T05:09:04;96539.84;;;16.09;100.00
39141;BME280;24875;48.436;10.298;2022-08-30T05:11:31;96545.53;;;16.25;99.94
39141;BME280;24875;48.436;10.298;2022-08-30T05:13:58;96542.28;;;16.10;98.87
39141;BME280;24875;48.436;10.298;2022-08-30T05:16:24;96540.63;;;16.22;99.07
39141;BME280;24875;48.436;10.298;2022-08-30T05:18:51;96541.44;;;16.16;100.00
39141;BME280;24875;48.436;10.298;2022-08-30T05:21:20;96543.09;;;16.24;100.00
39141;BME280;24875;48.436;10.298;2022-08-30T05:23:48;96540.25;;;16.32;100.00
39141;BME280;24875;48.436;10.298;2022-08-30T05:26:18;96537.41;;;16.46;100.00
39141;BME280;24875;48.436;10.298;2022-08-30T05:28:45;96543.50;;;16.66;100.00
39141;BME280;24875;48.436;10.298;2022-08-30T05:31:14;96540.59;;;16.93;100.00
39141;BME280;24875;48.436;10.298;2022-08-30T05:33:42;96551.81;;;17.08;100.00
39141;BME280;24875;48.436;10.298;2022-08-30T05:36:09;96539.72;;;17.25;99.52
39141;BME280;24875;48.436;10.298;2022-08-30T05:38:36;96549.13;;;17.27;98.92
39141;BME280;24875;48.436;10.298;2022-08-30T05:41:05;96548.66;;;17.43;98.64
39141;BME280;24875;48.436;10.298;2022-08-30T05:43:32;96549.50;;;17.31;99.59
39141;BME280;24875;48.436;10.298;2022-08-30T05:45:59;96549.09;;;17.40;100.00
39141;BME280;24875;48.436;10.298;2022-08-30T05:48:26;96549.88;;;17.47;100.00
39141;BME280;24875;48.436;10.298;2022-08-30T05:51:01;96552.38;;;17.73;99.83
39141;BME280;24875;48.436;10.298;2022-08-30T05:53:28;96547.69;;;17.75;100.00
39141;BME280;24875;48.436;10.298;2022-08-30T05:55:54;96554.97;;;17.92;99.85
39141;BME280;24875;48.436;10.298;2022-08-30T05:58:22;96551.16;;;18.13;99.08
39141;BME280;24875;48.436;10.298;2022-08-30T06:00:49;96551.88;;;17.95;100.00
39141;BME280;24875;48.436;10.298;2022-08-30T06:03:15;96559.28;;;17.87;100.00
39141;BME280;24875;48.436;10.298;2022-08-30T06:05:42;96555.25;;;17.78;100.00
39141;BME280;24875;48.436;10.298;2022-08-30T06:08:08;96556.69;;;17.74;100.00
39141;BME280;24875;48.436;10.298;2022-08-30T06:10:35;96557.88;;;17.84;100.00
39141;BME280;24875;48.436;10.298;2022-08-30T06:13:01;96552.47;;;17.97;100.00
39141;BME280;24875;48.436;10.298;2022-08-30T06:15:29;96553.31;;;17.91;100.00
39141;BME280;24875;48.436;10.298;2022-08-30T06:17:56;96564.88;;;17.79;100.00
39141;BME280;24875;48.436;10.298;2022-08-30T06:20:22;96549.31;;;17.76;100.00
39141;BME280;24875;48.436;10.298;2022-08-30T06:22:49;96559.91;;;17.89;100.00
39141;BME280;24875;48.436;10.298;2022-08-30T06:25:16;96558.44;;;17.93;100.00
39141;BME280;24875;48.436;10.298;2022-08-30T06:27:42;96547.59;;;17.88;100.00
39141;BME280;24875;48.436;10.298;2022-08-30T06:30:09;96552.88;;;17.94;100.00
39141;BME280;24875;48.436;10.298;2022-08-30T06:32:38;96551.72;;;18.15;100.00
39141;BME280;24875;48.436;10.298;2022-08-30T06:35:06;96553.09;;;18.30;100.00
39141;BME280;24875;48.436;10.298;2022-08-30T06:37:33;96543.13;;;18.43;100.00
39141;BME280;24875;48.436;10.298;2022-08-30T06:40:02;96570.97;;;18.78;100.00
39141;BME280;24875;48.436;10.298;2022-08-30T06:42:30;96556.72;;;18.84;100.00
39141;BME280;24875;48.436;10.298;2022-08-30T06:44:59;96553.31;;;18.95;100.00
39141;BME280;24875;48.436;10.298;2022-08-30T06:47:27;96550.78;;;19.06;100.00
39141;BME280;24875;48.436;10.298;2022-08-30T06:49:55;96551.22;;;19.21;100.00
39141;BME280;24875;48.436;10.298;2022-08-30T06:52:22;96548.47;;;19.28;100.00
39141;BME280;24875;48.436;10.298;2022-08-30T06:54:49;96550.50;;;19.32;100.00
39141;BME280;24875;48.436;10.298;2022-08-30T06:57:16;96547.94;;;19.37;100.00
39141;BME280;24875;48.436;10.298;2022-08-30T06:59:42;96536.66;;;19.53;100.00
39141;BME280;24875;48.436;10.298;2022-08-30T07:02:09;96540.19;;;19.65;100.00
39141;BME280;24875;48.436;10.298;2022-08-30T07:04:35;96525.94;;;19.71;100.00
39141;BME280;24875;48.436;10.298;2022-08-30T07:07:04;96537.56;;;19.94;100.00
39141;BME280;24875;48.436;10.298;2022-08-30T07:09:30;96534.84;;;20.12;98.40
39141;BME280;24875;48.436;10.298;2022-08-30T07:12:00;96543.59;;;20.19;97.96
39141;BME280;24875;48.436;10.298;2022-08-30T07:14:27;96545.66;;;20.17;97.43
39141;BME280;24875;48.436;10.298;2022-08-30T07:16:54;96538.47;;;20.18;97.92
39141;BME280;24875;48.436;10.298;2022-08-30T07:19:21;96542.66;;;20.25;97.26
39141;BME280;24875;48.436;10.298;2022-08-30T07:21:48;96535.41;;;20.55;97.25
39141;BME280;24875;48.436;10.298;2022-08-30T07:24:16;96531.09;;;20.65;94.80
39141;BME280;24875;48.436;10.298;2022-08-30T07:26:44;96540.41;;;20.63;94.83
39141;BME280;24875;48.436;10.298;2022-08-30T07:29:13;96545.56;;;20.76;94.19
39141;BME280;24875;48.436;10.298;2022-08-30T07:31:40;96541.63;;;20.89;93.51
39141;BME280;24875;48.436;10.298;2022-08-30T07:34:07;96548.13;;;21.05;92.05
39141;BME280;24875;48.436;10.298;2022-08-30T07:36:34;96551.59;;;21.28;91.19
39141;BME280;24875;48.436;10.298;2022-08-30T07:39:02;96542.13;;;21.37;93.27
39141;BME280;24875;48.436;10.298;2022-08-30T07:41:33;96554.88;;;21.19;94.10
39141;BME280;24875;48.436;10.298;2022-08-30T07:44:00;96546.84;;;21.19;93.23
39141;BME280;24875;48.436;10.298;2022-08-30T07:46:27;96545.78;;;21.31;92.85
39141;BME280;24875;48.436;10.298;2022-08-30T07:48:54;96543.09;;;21.42;90.52
39141;BME280;24875;48.436;10.298;2022-08-30T07:51:23;96541.28;;;21.71;89.94
39141;BME280;24875;48.436;10.298;2022-08-30T07:53:50;96547.66;;;21.81;89.84
39141;BME280;24875;48.436;10.298;2022-08-30T07:56:17;96548.06;;;21.62;91.60
39141;BME280;24875;48.436;10.298;2022-08-30T07:58:45;96548.53;;;21.70;94.66
39141;BME280;24875;48.436;10.298;2022-08-30T08:01:13;96558.66;;;21.68;90.88
39141;BME280;24875;48.436;10.298;2022-08-30T08:03:40;96565.25;;;21.89;91.93
39141;BME280;24875;48.436;10.298;2022-08-30T08:06:10;96561.31;;;21.80;90.22
39141;BME280;24875;48.436;10.298;2022-08-30T08:08:37;96563.47;;;21.94;89.98
39141;BME280;24875;48.436;10.298;2022-08-30T08:11:06;96549.94;;;22.17;91.04
39141;BME280;24875;48.436;10.298;2022-08-30T08:13:33;96559.66;;;22.18;90.16
39141;BME280;24875;48.436;10.298;2022-08-30T08:16:01;96570.09;;;22.03;89.13
39141;BME280;24875;48.436;10.298;2022-08-30T08:18:28;96566.69;;;22.07;88.24
39141;BME280;24875;48.436;10.298;2022-08-30T08:20:55;96560.78;;;22.22;90.93
39141;BME280;24875;48.436;10.298;2022-08-30T08:23:22;96555.97;;;22.35;90.32
39141;BME280;24875;48.436;10.298;2022-08-30T08:25:49;96559.91;;;22.61;91.71
39141;BME280;24875;48.436;10.298;2022-08-30T08:28:15;96567.81;;;22.67;90.11
39141;BME280;24875;48.436;10.298;2022-08-30T08:30:42;96564.88;;;22.68;86.79
39141;BME280;24875;48.436;10.298;2022-08-30T08:33:10;96562.81;;;22.92;87.59
39141;BME280;24875;48.436;10.298;2022-08-30T08:35:37;96571.13;;;22.90;89.32
39141;BME280;24875;48.436;10.298;2022-08-30T08:38:04;96563.00;;;22.85;87.63
39141;BME280;24875;48.436;10.298;2022-08-30T08:40:34;96558.69;;;23.01;87.91
39141;BME280;24875;48.436;10.298;2022-08-30T08:43:10;96565.03;;;23.11;86.51
39141;BME280;24875;48.436;10.298;2022-08-30T08:45:42;96549.44;;;23.30;86.30
39141;BME280;24875;48.436;10.298;2022-08-30T08:48:25;96552.03;;;23.62;85.79
39141;BME280;24875;48.436;10.298;2022-08-30T08:50:54;96549.31;;;23.62;85.37
39141;BME280;24875;48.436;10.298;2022-08-30T08:53:39;96548.69;;;23.72;84.32
39141;BME280;24875;48.436;10.298;2022-08-30T08:56:10;96550.81;;;23.91;82.34
39141;BME280;24875;48.436;10.298;2022-08-30T08:58:42;96549.28;;;24.00;80.83
39141;BME280;24875;48.436;10.298;2022-08-30T09:01:10;96540.91;;;23.96;81.15
39141;BME280;24875;48.436;10.298;2022-08-30T09:03:40;96541.38;;;24.15;81.12
39141;BME280;24875;48.436;10.298;2022-08-30T09:06:19;96538.75;;;24.20;80.23
39141;BME280;24875;48.436;10.298;2022-08-30T09:08:48;96540.00;;;24.12;82.46
39141;BME280;24875;48.436;10.298;2022-08-30T09:11:20;96531.16;;;24.17;79.75
39141;BME280;24875;48.436;10.298;2022-08-30T09:13:48;96539.81;;;24.19;80.68
39141;BME280;24875;48.436;10.298;2022-08-30T09:16:44;96532.69;;;24.34;81.22
39141;BME280;24875;48.436;10.298;2022-08-30T09:19:30;96534.53;;;24.29;82.17
39141;BME280;24875;48.436;10.298;2022-08-30T09:21:58;96533.09;;;24.48;82.05
39141;BME280;24875;48.436;10.298;2022-08-30T09:24:25;96531.44;;;24.42;82.23
39141;BME280;24875;48.436;10.298;2022-08-30T09:26:52;96533.94;;;24.48;77.81
39141;BME280;24875;48.436;10.298;2022-08-30T09:29:19;96529.91;;;24.51;78.00
39141;BME280;24875;48.436;10.298;2022-08-30T09:31:49;96524.94;;;24.69;80.58
39141;BME280;24875;48.436;10.298;2022-08-30T09:34:21;96523.09;;;24.74;77.58
39141;BME280;24875;48.436;10.298;2022-08-30T09:36:50;96521.53;;;24.78;76.55
39141;BME280;24875;48.436;10.298;2022-08-30T09:39:18;96519.31;;;24.75;77.35
39141;BME280;24875;48.436;10.298;2022-08-30T09:41:47;96518.84;;;24.83;78.46
39141;BME280;24875;48.436;10.298;2022-08-30T09:44:18;96514.88;;;24.96;81.18
39141;BME280;24875;48.436;10.298;2022-08-30T09:46:47;96512.22;;;25.01;77.50
39141;BME280;24875;48.436;10.298;2022-08-30T09:49:29;96497.66;;;25.43;76.40
39141;BME280;24875;48.436;10.298;2022-08-30T09:52:06;96503.03;;;25.38;74.22
39141;BME280;24875;48.436;10.298;2022-08-30T09:54:38;96500.59;;;25.36;74.29
39141;BME280;24875;48.436;10.298;2022-08-30T09:57:12;96498.28;;;25.09;75.10
39141;BME280;24875;48.436;10.298;2022-08-30T09:59:48;96490.66;;;25.47;73.11
39141;BME280;24875;48.436;10.298;2022-08-30T10:02:29;96488.47;;;25.39;74.26
39141;BME280;24875;48.436;10.298;2022-08-30T10:05:04;96490.03;;;25.25;73.87
39141;BME280;24875;48.436;10.298;2022-08-30T10:07:41;96490.59;;;25.27;72.44
39141;BME280;24875;48.436;10.298;2022-08-30T10:10:15;96485.34;;;25.67;72.82
39141;BME280;24875;48.436;10.298;2022-08-30T10:12:53;96480.81;;;25.72;71.45
39141;BME280;24875;48.436;10.298;2022-08-30T10:15:28;96480.03;;;25.77;71.06
39141;BME280;24875;48.436;10.298;2022-08-30T10:18:02;96479.28;;;25.96;71.75
39141;BME280;24875;48.436;10.298;2022-08-30T10:20:38;96480.94;;;26.22;67.70
39141;BME280;24875;48.436;10.298;2022-08-30T10:23:15;96477.69;;;26.10;66.71
39141;BME280;24875;48.436;10.298;2022-08-30T10:25:47;96480.13;;;26.26;66.92
39141;BME280;24875;48.436;10.298;2022-08-30T10:28:18;96475.31;;;26.43;65.07
39141;BME280;24875;48.436;10.298;2022-08-30T10:30:51;96465.78;;;26.21;66.92
39141;BME280;24875;48.436;10.298;2022-08-30T10:33:23;96464.47;;;26.33;65.69
39141;BME280;24875;48.436;10.298;2022-08-30T10:35:54;96468.28;;;26.52;66.24
39141;BME280;24875;48.436;10.298;2022-08-30T10:38:25;96456.94;;;26.35;69.19
39141;BME280;24875;48.436;10.298;2022-08-30T10:40:56;96465.31;;;26.34;65.67
39141;BME280;24875;48.436;10.298;2022-08-30T10:43:45;96458.00;;;26.59;64.11
39141;BME280;24875;48.436;10.298;2022-08-30T10:46:18;96460.44;;;26.50;63.76
39141;BME280;24875;48.436;10.298;2022-08-30T10:48:48;96457.75;;;26.55;64.55
39141;BME280;24875;48.436;10.298;2022-08-30T10:51:20;96467.75;;;26.65;65.29
39141;BME280;24875;48.436;10.298;2022-08-30T10:53:52;96468.53;;;26.70;64.54
39141;BME280;24875;48.436;10.298;2022-08-30T10:56:22;96458.53;;;26.46;63.38
39141;BME280;24875;48.436;10.298;2022-08-30T10:58:51;96474.50;;;26.67;62.59
39141;BME280;24875;48.436;10.298;2022-08-30T11:01:29;96457.47;;;26.62;62.16
39141;BME280;24875;48.436;10.298;2022-08-30T11:04:21;96466.94;;;26.49;62.97
39141;BME280;24875;48.436;10.298;2022-08-30T11:07:03;96464.47;;;26.93;59.58
39141;BME280;24875;48.436;10.298;2022-08-30T11:09:48;96468.53;;;26.80;62.59
39141;BME280;24875;48.436;10.298;2022-08-30T11:12:32;96458.50;;;26.91;62.84
39141;BME280;24875;48.436;10.298;2022-08-30T11:15:14;96451.50;;;27.00;60.96
39141;BME280;24875;48.436;10.298;2022-08-30T11:17:45;96447.97;;;26.99;65.79
39141;BME280;24875;48.436;10.298;2022-08-30T11:20:22;96456.91;;;26.75;58.67
39141;BME280;24875;48.436;10.298;2022-08-30T11:23:23;96455.81;;;26.91;58.13
39141;BME280;24875;48.436;10.298;2022-08-30T11:25:53;96458.53;;;26.96;60.01
39141;BME280;24875;48.436;10.298;2022-08-30T11:31:39;96448.16;;;27.32;55.90
39141;BME280;24875;48.436;10.298;2022-08-30T11:34:06;96457.66;;;27.25;56.27
39141;BME280;24875;48.436;10.298;2022-08-30T11:37:03;96446.69;;;28.13;51.33
39141;BME280;24875;48.436;10.298;2022-08-30T11:39:53;96448.59;;;27.64;54.37
39141;BME280;24875;48.436;10.298;2022-08-30T11:42:28;96451.16;;;27.31;54.98
39141;BME280;24875;48.436;10.298;2022-08-30T11:48:02;96449.78;;;27.38;52.96
39141;BME280;24875;48.436;10.298;2022-08-30T11:50:33;96454.63;;;27.41;50.86
39141;BME280;24875;48.436;10.298;2022-08-30T11:53:05;96450.88;;;27.22;51.46
39141;BME280;24875;48.436;10.298;2022-08-30T11:55:56;96450.91;;;27.12;52.25
39141;BME280;24875;48.436;10.298;2022-08-30T11:58:41;96454.91;;;27.35;52.64
39141;BME280;24875;48.436;10.298;2022-08-30T12:01:18;96448.16;;;27.32;54.76
39141;BME280;24875;48.436;10.298;2022-08-30T12:03:54;96452.19;;;27.45;52.72
39141;BME280;24875;48.436;10.298;2022-08-30T12:06:44;96454.03;;;27.49;52.02
39141;BME280;24875;48.436;10.298;2022-08-30T12:12:58;96444.22;;;27.73;51.48
39141;BME280;24875;48.436;10.298;2022-08-30T12:18:29;96438.97;;;27.33;54.88
39141;BME280;24875;48.436;10.298;2022-08-30T12:21:12;96429.66;;;27.54;55.69
39141;BME280;24875;48.436;10.298;2022-08-30T12:23:47;96437.59;;;27.36;53.72
39141;BME280;24875;48.436;10.298;2022-08-30T12:26:19;96427.53;;;27.41;51.57
39141;BME280;24875;48.436;10.298;2022-08-30T12:28:48;96428.22;;;27.04;57.01
39141;BME280;24875;48.436;10.298;2022-08-30T12:31:18;96414.56;;;27.38;55.38
39141;BME280;24875;48.436;10.298;2022-08-30T12:33:47;96427.38;;;27.13;54.42
39141;BME280;24875;48.436;10.298;2022-08-30T12:36:28;96423.31;;;27.15;54.33
39141;BME280;24875;48.436;10.298;2022-08-30T12:39:07;96426.06;;;26.86;53.97
39141;BME280;24875;48.436;10.298;2022-08-30T12:41:34;96427.13;;;26.95;53.56
39141;BME280;24875;48.436;10.298;2022-08-30T12:44:03;96421.19;;;27.03;51.71
39141;BME280;24875;48.436;10.298;2022-08-30T12:46:32;96425.78;;;27.02;52.13
39141;BME280;24875;48.436;10.298;2022-08-30T12:48:59;96426.88;;;26.91;52.07
39141;BME280;24875;48.436;10.298;2022-08-30T12:51:35;96427.69;;;27.07;52.94
39141;BME280;24875;48.436;10.298;2022-08-30T12:54:05;96421.44;;;27.06;52.17
39141;BME280;24875;48.436;10.298;2022-08-30T12:56:52;96417.22;;;27.58;50.94
39141;BME280;24875;48.436;10.298;2022-08-30T12:59:44;96407.81;;;27.89;51.77
39141;BME280;24875;48.436;10.298;2022-08-30T13:02:14;96410.72;;;27.59;50.77
39141;BME280;24875;48.436;10.298;2022-08-30T13:04:42;96407.25;;;27.97;54.74
39141;BME280;24875;48.436;10.298;2022-08-30T13:07:23;96399.09;;;28.02;50.38
39141;BME280;24875;48.436;10.298;2022-08-30T13:09:59;96394.94;;;28.09;52.34
39141;BME280;24875;48.436;10.298;2022-08-30T13:12:27;96390.94;;;28.07;50.45